Time;durP1;ratioP1;P1;durP2;ratioP2;P2;SDS_P1;SDS_P2;PMS_P1;PMS_P2;Temp;Humidity;BMP_temperature;BMP_pressure;BME280_temperature;BME280_humidity;BME280_pressure;Samples;Min_cycle;Max_cycle;Signal;HPM_P1;HPM_P2
2023/06/07 00:00:50;;;;;;;21.02;6.90;;;12.10;99.90;;;;;;4933125;29;20198;-82
2023/06/07 00:03:16;;;;;;;19.08;6.88;;;12.10;99.90;;;;;;4937012;29;20187;-81
2023/06/07 00:05:43;;;;;;;26.52;6.88;;;12.10;99.90;;;;;;4937306;29;20303;-82
2023/06/07 00:08:09;;;;;;;28.65;6.75;;;12.00;99.90;;;;;;4954276;29;20649;-81
2023/06/07 00:10:36;;;;;;;22.17;6.88;;;12.00;99.90;;;;;;4937264;29;20333;-81
2023/06/07 00:13:03;;;;;;;19.67;6.72;;;12.00;99.90;;;;;;4936922;29;20963;-81
2023/06/07 00:15:29;;;;;;;21.90;6.53;;;11.90;99.90;;;;;;4921195;29;20183;-82
2023/06/07 00:17:59;;;;;;;19.05;6.35;;;11.90;99.90;;;;;;4919187;29;20195;-81
2023/06/07 00:20:26;;;;;;;21.10;6.13;;;11.90;99.90;;;;;;4933426;29;20252;-81
2023/06/07 00:22:55;;;;;;;18.67;6.68;;;11.90;99.90;;;;;;4934948;29;20274;-83
2023/06/07 00:25:21;;;;;;;20.55;5.95;;;11.90;99.90;;;;;;4951082;28;20227;-81
2023/06/07 00:27:47;;;;;;;22.80;6.65;;;11.90;99.90;;;;;;4951854;29;20210;-81
2023/06/07 00:30:13;;;;;;;14.73;5.97;;;11.80;99.90;;;;;;4936568;29;20271;-82
2023/06/07 00:32:39;;;;;;;17.92;6.13;;;11.80;99.90;;;;;;4952695;29;20612;-82
2023/06/07 00:35:07;;;;;;;26.17;6.80;;;11.80;99.90;;;;;;4936509;29;20195;-82
2023/06/07 00:37:34;;;;;;;22.85;7.03;;;11.80;99.90;;;;;;4921020;29;20193;-81
2023/06/07 00:40:00;;;;;;;27.52;6.90;;;11.80;99.90;;;;;;4921062;29;20292;-82
2023/06/07 00:42:26;;;;;;;20.60;6.13;;;11.80;99.90;;;;;;4953617;29;20183;-82
2023/06/07 00:44:52;;;;;;;25.67;6.90;;;11.70;99.90;;;;;;4961177;28;20602;-81
2023/06/07 00:47:18;;;;;;;16.33;5.88;;;11.70;99.90;;;;;;4920569;29;20230;-82
2023/06/07 00:49:44;;;;;;;19.38;6.10;;;11.70;99.90;;;;;;4936402;29;20201;-84
2023/06/07 00:52:11;;;;;;;21.63;5.82;;;11.70;99.90;;;;;;4936819;29;20194;-82
2023/06/07 00:54:37;;;;;;;25.40;6.03;;;11.70;99.90;;;;;;4936520;29;20218;-81
2023/06/07 00:57:05;;;;;;;22.92;6.40;;;11.70;99.90;;;;;;4936603;29;20175;-82
2023/06/07 00:59:31;;;;;;;20.15;5.82;;;11.60;99.90;;;;;;4953671;29;20187;-82
2023/06/07 01:01:57;;;;;;;25.70;6.10;;;11.60;99.90;;;;;;4932097;29;20380;-81
2023/06/07 01:04:24;;;;;;;19.05;5.75;;;11.60;99.90;;;;;;4936491;29;20637;-81
2023/06/07 01:06:53;;;;;;;18.52;5.68;;;11.50;99.90;;;;;;4917313;29;20684;-82
2023/06/07 01:09:20;;;;;;;18.90;5.78;;;11.60;99.90;;;;;;4953230;29;20277;-81
2023/06/07 01:11:49;;;;;;;22.65;5.72;;;11.60;99.90;;;;;;4953637;29;20317;-81
2023/06/07 01:14:16;;;;;;;23.73;5.30;;;11.60;99.90;;;;;;4936326;29;20187;-81
2023/06/07 01:16:48;;;;;;;19.73;5.78;;;11.60;99.90;;;;;;4920668;29;20193;-82
2023/06/07 01:19:21;;;;;;;17.10;5.80;;;11.60;99.90;;;;;;4953563;29;20186;-81
2023/06/07 01:21:51;;;;;;;22.42;5.47;;;11.60;99.90;;;;;;4954040;29;20177;-81
2023/06/07 01:24:18;;;;;;;23.77;5.47;;;11.60;99.90;;;;;;4950015;29;20182;-81
2023/06/07 01:26:53;;;;;;;19.65;5.63;;;11.60;99.90;;;;;;4947819;28;20229;-81
2023/06/07 01:29:21;;;;;;;18.42;5.65;;;11.60;99.90;;;;;;4917836;29;20307;-81
2023/06/07 01:31:49;;;;;;;17.92;5.85;;;11.60;99.90;;;;;;4950524;29;20489;-81
2023/06/07 01:34:15;;;;;;;19.20;5.47;;;11.50;99.90;;;;;;4941810;29;20261;-81
2023/06/07 01:36:42;;;;;;;18.85;5.43;;;11.50;99.90;;;;;;4970472;28;20234;-81
2023/06/07 01:39:10;;;;;;;19.10;5.60;;;11.50;99.90;;;;;;4936118;29;20182;-81
2023/06/07 01:41:36;;;;;;;17.98;5.20;;;11.60;99.90;;;;;;4935910;29;20566;-81
2023/06/07 01:44:02;;;;;;;14.43;5.43;;;11.60;99.90;;;;;;4952009;29;20183;-81
2023/06/07 01:46:29;;;;;;;23.58;5.88;;;11.60;99.90;;;;;;4920157;29;20186;-81
2023/06/07 01:48:55;;;;;;;21.63;5.18;;;11.60;99.90;;;;;;4904903;29;20226;-81
2023/06/07 01:51:21;;;;;;;19.63;5.43;;;11.60;99.90;;;;;;4935884;29;20175;-82
2023/06/07 01:53:49;;;;;;;21.52;5.03;;;11.60;99.90;;;;;;4949870;29;20724;-81
2023/06/07 01:56:48;;;;;;;21.63;5.75;;;11.60;99.90;;;;;;4932746;29;20183;-82
2023/06/07 01:59:28;;;;;;;27.00;5.82;;;11.60;99.90;;;;;;4916616;29;20175;-82
2023/06/07 02:02:10;;;;;;;16.08;5.35;;;11.60;99.90;;;;;;4937371;29;20190;-82
2023/06/07 02:04:44;;;;;;;26.10;5.85;;;11.60;99.90;;;;;;4955166;28;20349;-82
2023/06/07 02:07:17;;;;;;;21.55;5.50;;;11.60;99.90;;;;;;4956649;29;20241;-82
2023/06/07 02:09:46;;;;;;;27.23;6.53;;;11.70;99.90;;;;;;4939332;29;20545;-82
2023/06/07 02:12:13;;;;;;;24.05;6.40;;;11.70;99.90;;;;;;4955085;29;20621;-83
2023/06/07 02:14:41;;;;;;;30.85;6.68;;;11.70;99.90;;;;;;4939209;29;20183;-82
2023/06/07 02:17:07;;;;;;;17.05;5.70;;;11.70;99.90;;;;;;4923620;29;20281;-82
2023/06/07 02:19:35;;;;;;;22.17;5.50;;;11.80;99.90;;;;;;4923786;29;20190;-82
2023/06/07 02:22:02;;;;;;;19.40;5.28;;;11.80;99.90;;;;;;4923558;29;20210;-83
2023/06/07 02:24:27;;;;;;;20.63;6.30;;;11.80;99.90;;;;;;4939040;29;20225;-82
2023/06/07 02:26:55;;;;;;;20.73;5.80;;;11.90;99.90;;;;;;4956335;29;20290;-82
2023/06/07 02:29:22;;;;;;;17.13;5.65;;;11.80;99.90;;;;;;4956266;29;20218;-82
2023/06/07 02:31:54;;;;;;;22.98;5.85;;;11.90;99.90;;;;;;4954868;29;20194;-82
2023/06/07 02:34:21;;;;;;;16.05;5.20;;;11.90;99.90;;;;;;4922931;29;20183;-82
2023/06/07 02:36:47;;;;;;;18.15;5.32;;;11.90;99.90;;;;;;4956440;29;20183;-82
2023/06/07 02:39:14;;;;;;;19.67;4.82;;;11.90;99.90;;;;;;4939029;29;20256;-82
2023/06/07 02:41:42;;;;;;;19.63;5.38;;;11.90;99.90;;;;;;4939542;29;20368;-82
2023/06/07 02:44:10;;;;;;;18.33;4.90;;;11.90;99.90;;;;;;4961004;28;20285;-82
2023/06/07 02:46:36;;;;;;;15.82;5.20;;;11.90;99.90;;;;;;4957703;28;20212;-82
2023/06/07 02:49:02;;;;;;;16.77;4.63;;;11.90;99.90;;;;;;4956720;28;20197;-82
2023/06/07 02:51:29;;;;;;;18.60;4.88;;;11.90;99.90;;;;;;4919293;29;20605;-82
2023/06/07 02:53:56;;;;;;;17.48;5.45;;;12.00;99.90;;;;;;4936710;29;20562;-83
2023/06/07 02:56:24;;;;;;;17.10;4.70;;;12.00;99.90;;;;;;4955823;29;20648;-81
2023/06/07 02:58:50;;;;;;;18.05;4.68;;;12.00;99.90;;;;;;4907446;29;20186;-81
2023/06/07 03:01:17;;;;;;;21.02;5.78;;;12.00;99.90;;;;;;4922793;29;20194;-82
2023/06/07 03:03:49;;;;;;;20.42;5.13;;;12.00;99.90;;;;;;4953540;29;20261;-80
2023/06/07 03:06:15;;;;;;;17.65;5.28;;;12.10;99.90;;;;;;4922635;29;20608;-82
2023/06/07 03:08:42;;;;;;;18.42;4.93;;;12.10;99.90;;;;;;4921998;29;20684;-82
2023/06/07 03:11:10;;;;;;;20.67;5.72;;;12.10;99.90;;;;;;4920543;29;20224;-81
2023/06/07 03:13:40;;;;;;;21.10;5.65;;;12.10;99.90;;;;;;4918966;29;20195;-81
2023/06/07 03:16:10;;;;;;;25.08;6.15;;;12.10;99.90;;;;;;4918380;29;20183;-81
2023/06/07 03:18:46;;;;;;;18.35;5.97;;;12.10;99.90;;;;;;4918934;29;20721;-83
2023/06/07 03:21:12;;;;;;;20.13;5.88;;;12.10;99.90;;;;;;4906037;29;20246;-81
2023/06/07 03:23:40;;;;;;;26.48;6.10;;;12.10;99.90;;;;;;4929283;28;20198;-81
2023/06/07 03:26:07;;;;;;;21.83;6.40;;;12.10;99.90;;;;;;4925176;28;20233;-81
2023/06/07 03:28:34;;;;;;;20.38;6.43;;;12.10;99.90;;;;;;4956938;28;20233;-81
2023/06/07 03:31:01;;;;;;;21.63;6.40;;;12.10;99.90;;;;;;4944167;29;20233;-81
2023/06/07 03:33:38;;;;;;;23.70;6.68;;;12.10;99.90;;;;;;4923131;29;20302;-80
2023/06/07 03:36:07;;;;;;;20.63;6.22;;;12.10;99.90;;;;;;4949206;29;20648;-81
2023/06/07 03:38:33;;;;;;;18.67;5.68;;;12.10;99.90;;;;;;4938542;29;20199;-81
2023/06/07 03:41:00;;;;;;;19.67;6.07;;;12.10;99.90;;;;;;4926222;29;20213;-80
2023/06/07 03:43:30;;;;;;;20.15;6.00;;;12.20;99.90;;;;;;4923691;29;20218;-81
2023/06/07 03:45:57;;;;;;;20.52;5.78;;;12.20;99.90;;;;;;4918553;29;20207;-81
2023/06/07 03:48:23;;;;;;;28.23;5.63;;;12.20;99.90;;;;;;4922202;29;20238;-81
2023/06/07 03:50:50;;;;;;;28.23;6.40;;;12.20;99.90;;;;;;4937201;29;20197;-80
2023/06/07 03:53:16;;;;;;;16.67;5.03;;;12.20;99.90;;;;;;4926874;29;20198;-81
2023/06/07 03:55:47;;;;;;;21.15;5.60;;;12.20;99.90;;;;;;4922418;29;20193;-82
2023/06/07 03:58:18;;;;;;;16.58;5.00;;;12.20;99.90;;;;;;4939793;29;20194;-82
2023/06/07 04:00:45;;;;;;;28.08;5.55;;;12.20;99.90;;;;;;4953269;29;20652;-82
2023/06/07 04:03:12;;;;;;;15.27;4.80;;;12.30;99.90;;;;;;4921980;29;20186;-84
2023/06/07 04:05:38;;;;;;;21.20;5.07;;;12.30;99.90;;;;;;4931671;29;20191;-84
2023/06/07 04:08:06;;;;;;;17.13;5.07;;;12.30;99.90;;;;;;4942297;29;20226;-83
2023/06/07 04:10:32;;;;;;;14.63;4.80;;;12.30;99.90;;;;;;4921172;29;20337;-83
2023/06/07 04:12:58;;;;;;;22.33;5.03;;;12.30;99.90;;;;;;4953819;29;20684;-83
2023/06/07 04:15:24;;;;;;;16.88;4.80;;;12.40;99.90;;;;;;4920420;29;20221;-83
2023/06/07 04:17:50;;;;;;;18.98;5.28;;;12.40;99.90;;;;;;4939501;28;20194;-83
2023/06/07 04:20:17;;;;;;;14.27;5.03;;;12.40;99.90;;;;;;4956275;28;20197;-83
2023/06/07 04:22:44;;;;;;;17.95;4.78;;;12.40;99.90;;;;;;4951575;29;20321;-83
2023/06/07 04:25:11;;;;;;;14.40;4.95;;;12.40;99.90;;;;;;4928119;29;20191;-83
2023/06/07 04:27:38;;;;;;;13.05;4.82;;;12.40;99.90;;;;;;4954486;28;20285;-83
2023/06/07 04:30:08;;;;;;;13.82;4.38;;;12.50;99.90;;;;;;4951236;28;20173;-82
2023/06/07 04:32:37;;;;;;;16.00;4.47;;;12.50;99.90;;;;;;4940542;28;20644;-83
2023/06/07 04:35:05;;;;;;;19.02;4.50;;;12.50;99.90;;;;;;4934034;29;20183;-83
2023/06/07 04:37:31;;;;;;;18.13;5.18;;;12.50;99.90;;;;;;4952405;29;20607;-82
2023/06/07 04:39:58;;;;;;;19.63;5.00;;;12.60;99.90;;;;;;4936488;29;20586;-83
2023/06/07 04:42:25;;;;;;;21.52;4.95;;;12.50;99.90;;;;;;4909912;29;20274;-82
2023/06/07 04:44:52;;;;;;;19.80;4.60;;;12.60;99.90;;;;;;4945436;29;20210;-81
2023/06/07 04:47:20;;;;;;;21.70;4.90;;;12.60;99.90;;;;;;4936773;29;20309;-81
2023/06/07 04:49:51;;;;;;;21.05;4.90;;;12.60;99.90;;;;;;4921109;29;20190;-83
2023/06/07 04:52:20;;;;;;;15.85;4.60;;;12.50;99.90;;;;;;4954028;29;20175;-81
2023/06/07 04:54:50;;;;;;;15.73;4.75;;;12.50;99.90;;;;;;4947415;29;20630;-81
2023/06/07 04:57:18;;;;;;;17.15;5.18;;;12.50;99.90;;;;;;4917567;29;20187;-82
2023/06/07 04:59:48;;;;;;;20.02;4.55;;;12.50;99.90;;;;;;4947234;29;20228;-82
2023/06/07 05:02:20;;;;;;;17.45;4.95;;;12.60;99.90;;;;;;4937767;29;20189;-84
2023/06/07 05:04:46;;;;;;;19.38;4.07;;;12.60;99.90;;;;;;4936546;29;20193;-82
2023/06/07 05:07:13;;;;;;;13.20;4.18;;;12.60;99.90;;;;;;4936253;29;20218;-81
2023/06/07 05:09:42;;;;;;;20.73;4.85;;;12.60;99.90;;;;;;4936979;29;20733;-81
2023/06/07 05:12:09;;;;;;;18.83;4.60;;;12.60;99.90;;;;;;4936476;29;20262;-81
2023/06/07 05:14:36;;;;;;;16.67;5.45;;;12.70;99.90;;;;;;4936505;29;20249;-82
2023/06/07 05:17:03;;;;;;;19.00;4.85;;;12.70;99.90;;;;;;4935776;29;20270;-82
2023/06/07 05:19:32;;;;;;;12.60;4.53;;;12.70;99.90;;;;;;4921077;29;20230;-82
2023/06/07 05:21:58;;;;;;;15.50;4.38;;;12.70;99.90;;;;;;4936362;29;20186;-82
2023/06/07 05:24:24;;;;;;;12.55;4.25;;;12.80;99.90;;;;;;4936234;29;20191;-82
2023/06/07 05:26:50;;;;;;;16.23;4.88;;;12.80;99.90;;;;;;4918331;29;20245;-82
2023/06/07 05:29:16;;;;;;;14.25;4.63;;;12.90;99.90;;;;;;4936314;29;20625;-82
2023/06/07 05:31:42;;;;;;;16.08;4.60;;;12.90;99.90;;;;;;4936085;29;20225;-82
2023/06/07 05:34:08;;;;;;;15.68;4.97;;;12.90;99.90;;;;;;4949324;29;20577;-82
2023/06/07 05:36:35;;;;;;;18.17;5.05;;;13.00;99.90;;;;;;4916494;29;20548;-81
2023/06/07 05:39:03;;;;;;;14.63;4.40;;;13.10;99.90;;;;;;4917771;29;20210;-83
2023/06/07 05:41:28;;;;;;;13.90;4.75;;;13.10;99.90;;;;;;4923080;29;20179;-82
2023/06/07 05:43:54;;;;;;;22.00;5.25;;;13.10;99.90;;;;;;4954810;28;20526;-82
2023/06/07 05:46:20;;;;;;;14.32;4.60;;;13.20;99.90;;;;;;4934863;29;20195;-83
2023/06/07 05:48:47;;;;;;;15.63;4.63;;;13.20;99.90;;;;;;4922684;29;20261;-82
2023/06/07 05:51:18;;;;;;;19.38;4.28;;;13.20;99.90;;;;;;4923911;29;20305;-82
2023/06/07 05:53:44;;;;;;;14.93;4.70;;;13.30;99.90;;;;;;4939232;29;20576;-83
2023/06/07 05:56:16;;;;;;;20.40;5.10;;;13.30;99.90;;;;;;4955049;28;20233;-83
2023/06/07 05:58:43;;;;;;;17.38;4.70;;;13.30;99.90;;;;;;4956816;29;20191;-82
2023/06/07 06:01:11;;;;;;;16.15;5.28;;;13.30;99.90;;;;;;4937337;29;20195;-82
2023/06/07 06:03:36;;;;;;;15.48;4.88;;;13.40;99.90;;;;;;4968986;28;20596;-82
2023/06/07 06:06:17;;;;;;;16.77;4.78;;;13.40;99.90;;;;;;4955493;29;20197;-82
2023/06/07 06:08:45;;;;;;;17.98;5.05;;;13.40;99.90;;;;;;4946395;29;20213;-82
2023/06/07 06:11:12;;;;;;;15.43;4.90;;;13.50;99.90;;;;;;4939062;29;20190;-82
2023/06/07 06:13:38;;;;;;;16.15;4.80;;;13.50;99.90;;;;;;4939515;29;20179;-82
2023/06/07 06:16:05;;;;;;;21.05;4.88;;;13.50;99.90;;;;;;4939625;29;20209;-83
2023/06/07 06:18:31;;;;;;;13.07;4.18;;;13.60;99.90;;;;;;4923628;28;20289;-82
2023/06/07 06:20:57;;;;;;;15.95;4.82;;;13.60;99.90;;;;;;4944378;29;20606;-82
2023/06/07 06:23:24;;;;;;;18.65;5.00;;;13.60;99.90;;;;;;4937587;29;20214;-82
2023/06/07 06:25:50;;;;;;;15.05;4.80;;;13.60;99.90;;;;;;4955833;28;20724;-81
2023/06/07 06:28:16;;;;;;;16.40;4.65;;;13.70;99.90;;;;;;4938663;29;20677;-82
2023/06/07 06:30:45;;;;;;;16.08;5.05;;;13.70;99.90;;;;;;4935532;29;20246;-83
2023/06/07 06:33:12;;;;;;;19.25;4.90;;;13.70;99.90;;;;;;4920041;29;20287;-82
2023/06/07 06:35:38;;;;;;;11.82;4.70;;;13.70;99.90;;;;;;4923119;29;20202;-82
2023/06/07 06:38:04;;;;;;;18.60;4.43;;;13.80;99.90;;;;;;4956083;29;20269;-82
2023/06/07 06:40:30;;;;;;;17.65;4.90;;;13.80;99.90;;;;;;4938540;29;20205;-82
2023/06/07 06:42:56;;;;;;;13.00;4.78;;;13.90;99.90;;;;;;4938855;29;20191;-83
2023/06/07 06:45:32;;;;;;;20.25;4.30;;;13.90;99.90;;;;;;4939266;29;20255;-80
2023/06/07 06:48:01;;;;;;;17.48;4.45;;;14.00;99.90;;;;;;4956187;29;20668;-81
2023/06/07 06:50:28;;;;;;;23.02;5.35;;;14.00;99.90;;;;;;4938291;29;20543;-80
2023/06/07 06:52:54;;;;;;;17.38;4.88;;;14.00;99.90;;;;;;4939478;29;20246;-80
2023/06/07 06:55:20;;;;;;;18.88;4.35;;;14.10;99.90;;;;;;4938927;29;20191;-81
2023/06/07 06:57:46;;;;;;;16.48;4.20;;;14.20;99.90;;;;;;4956425;29;20211;-82
2023/06/07 07:00:12;;;;;;;17.50;4.68;;;14.20;99.90;;;;;;4939450;28;20186;-82
2023/06/07 07:02:38;;;;;;;18.33;5.28;;;14.30;99.90;;;;;;4975844;28;20281;-81
2023/06/07 07:05:05;;;;;;;14.18;4.05;;;14.40;99.90;;;;;;4957885;28;20214;-81
2023/06/07 07:07:31;;;;;;;13.82;4.18;;;14.40;99.90;;;;;;4975084;28;20220;-81
2023/06/07 07:09:58;;;;;;;11.77;3.92;;;14.50;99.90;;;;;;4974934;28;20178;-81
2023/06/07 07:12:24;;;;;;;14.80;4.22;;;14.60;99.90;;;;;;4972806;28;20197;-81
2023/06/07 07:14:50;;;;;;;14.23;4.18;;;14.60;99.90;;;;;;4951112;29;20609;-81
2023/06/07 07:17:17;;;;;;;20.17;5.10;;;14.70;99.90;;;;;;4954212;29;20364;-81
2023/06/07 07:19:46;;;;;;;14.00;4.53;;;14.70;99.90;;;;;;4922729;29;20209;-82
2023/06/07 07:22:12;;;;;;;12.13;3.92;;;14.80;99.90;;;;;;4963601;28;20640;-82
2023/06/07 07:24:38;;;;;;;14.10;4.45;;;14.90;99.90;;;;;;4929524;29;20218;-81
2023/06/07 07:27:06;;;;;;;18.45;4.13;;;15.00;99.90;;;;;;4955525;28;20246;-82
2023/06/07 07:29:32;;;;;;;17.45;4.30;;;15.10;99.90;;;;;;4938201;29;20187;-82
2023/06/07 07:31:58;;;;;;;18.30;4.80;;;15.20;99.90;;;;;;4940224;28;20197;-82
2023/06/07 07:34:24;;;;;;;17.63;4.38;;;15.30;99.90;;;;;;4929309;29;20692;-83
2023/06/07 07:36:50;;;;;;;15.32;4.32;;;15.40;99.90;;;;;;4938329;29;20198;-82
2023/06/07 07:39:17;;;;;;;17.95;4.30;;;15.50;99.90;;;;;;4937827;29;20183;-82
2023/06/07 07:41:43;;;;;;;14.02;4.20;;;15.50;99.90;;;;;;4937832;29;20559;-83
2023/06/07 07:44:09;;;;;;;12.50;4.38;;;15.60;99.90;;;;;;4955062;29;20207;-83
2023/06/07 07:46:38;;;;;;;13.35;4.00;;;15.60;99.90;;;;;;4921873;29;20193;-82
2023/06/07 07:49:04;;;;;;;13.18;3.95;;;15.70;99.90;;;;;;4911474;29;20215;-82
2023/06/07 07:51:29;;;;;;;14.90;4.50;;;15.80;99.90;;;;;;4936208;29;20185;-82
2023/06/07 07:53:56;;;;;;;13.18;4.65;;;15.90;99.90;;;;;;4932434;29;20676;-84
2023/06/07 07:56:22;;;;;;;14.18;3.90;;;15.90;99.90;;;;;;4931490;29;20254;-83
2023/06/07 07:58:49;;;;;;;17.60;3.95;;;16.00;99.90;;;;;;4954488;29;20186;-81
2023/06/07 08:01:19;;;;;;;17.90;4.57;;;16.00;99.90;;;;;;4939761;29;20642;-82
2023/06/07 08:03:46;;;;;;;13.02;3.78;;;16.10;99.90;;;;;;4911880;29;20183;-82
2023/06/07 08:06:12;;;;;;;17.08;4.30;;;16.10;99.90;;;;;;4928230;29;20645;-82
2023/06/07 08:08:38;;;;;;;15.90;3.80;;;16.20;99.90;;;;;;4954420;29;20221;-82
2023/06/07 08:11:04;;;;;;;17.52;4.10;;;16.20;99.90;;;;;;4937052;29;20663;-82
2023/06/07 08:13:29;;;;;;;17.35;4.15;;;16.30;99.90;;;;;;4936916;29;20206;-82
2023/06/07 08:15:55;;;;;;;15.50;4.50;;;16.30;99.90;;;;;;4954260;29;20178;-81
2023/06/07 08:18:21;;;;;;;19.05;4.80;;;16.40;99.90;;;;;;4936843;29;20179;-82
2023/06/07 08:20:47;;;;;;;11.13;3.95;;;16.50;99.90;;;;;;4936115;29;20613;-83
2023/06/07 08:23:13;;;;;;;13.73;4.22;;;16.60;99.90;;;;;;4952364;29;20233;-83
2023/06/07 08:25:39;;;;;;;15.55;3.95;;;16.60;99.90;;;;;;4953443;28;20179;-83
2023/06/07 08:28:05;;;;;;;15.90;4.38;;;16.70;99.90;;;;;;4921007;29;20238;-81
2023/06/07 08:30:31;;;;;;;13.45;4.00;;;16.80;99.90;;;;;;4920729;29;20269;-81
2023/06/07 08:32:57;;;;;;;14.65;4.30;;;16.90;99.90;;;;;;4953695;29;20210;-83
2023/06/07 08:35:23;;;;;;;14.82;3.95;;;17.00;99.90;;;;;;4937160;29;20548;-82
2023/06/07 08:37:49;;;;;;;14.68;4.45;;;17.20;99.90;;;;;;4937140;29;20183;-85
2023/06/07 08:40:18;;;;;;;14.63;4.35;;;17.30;99.90;;;;;;4936909;29;20637;-82
2023/06/07 08:42:44;;;;;;;13.07;3.88;;;17.30;99.90;;;;;;4953387;29;20685;-83
2023/06/07 08:45:10;;;;;;;11.50;4.15;;;17.40;99.90;;;;;;4936677;29;20179;-82
2023/06/07 08:47:37;;;;;;;14.45;4.78;;;17.50;99.90;;;;;;4952801;29;20297;-83
2023/06/07 08:50:04;;;;;;;17.35;4.55;;;17.60;99.90;;;;;;4952580;29;20610;-82
2023/06/07 08:52:37;;;;;;;19.25;4.85;;;17.60;99.90;;;;;;4954947;28;20190;-82
2023/06/07 08:55:10;;;;;;;17.27;4.70;;;17.70;99.90;;;;;;4938116;29;20221;-84
2023/06/07 08:57:36;;;;;;;14.63;4.43;;;17.80;99.90;;;;;;4946107;28;20186;-83
2023/06/07 09:00:06;;;;;;;13.85;4.25;;;17.90;99.90;;;;;;4944322;29;20189;-84
2023/06/07 09:02:32;;;;;;;16.05;4.40;;;18.00;99.90;;;;;;4953986;28;20356;-83
2023/06/07 09:05:05;;;;;;;15.32;4.30;;;18.10;99.90;;;;;;4945634;29;20605;-81
2023/06/07 09:07:32;;;;;;;15.55;4.30;;;18.20;99.90;;;;;;4940763;29;20242;-81
2023/06/07 09:09:58;;;;;;;11.88;3.88;;;18.30;99.90;;;;;;4933383;29;20178;-82
2023/06/07 09:12:24;;;;;;;15.20;3.85;;;18.40;99.90;;;;;;4944525;29;20238;-84
2023/06/07 09:14:51;;;;;;;11.35;4.10;;;18.50;99.90;;;;;;4950953;28;20194;-85
2023/06/07 09:17:17;;;;;;;16.40;3.75;;;18.50;99.90;;;;;;4943991;29;20345;-84
2023/06/07 09:19:43;;;;;;;11.35;4.20;;;18.50;99.90;;;;;;4906877;29;20610;-84
2023/06/07 09:22:14;;;;;;;11.40;4.05;;;18.60;99.90;;;;;;4944401;29;20217;-84
2023/06/07 09:24:41;;;;;;;15.98;5.50;;;18.70;99.90;;;;;;4941309;29;20222;-85
2023/06/07 09:27:08;;;;;;;12.48;4.75;;;18.70;99.90;;;;;;4966342;28;20380;-85
2023/06/07 09:29:41;;;;;;;15.02;5.03;;;18.80;99.90;;;;;;4950090;29;20269;-84
2023/06/07 09:32:21;;;;;;;13.00;4.35;;;18.80;99.90;;;;;;4939203;29;20282;-85
2023/06/07 09:34:49;;;;;;;13.27;4.50;;;18.90;99.90;;;;;;4937594;29;20187;-83
2023/06/07 09:37:20;;;;;;;13.43;4.85;;;19.00;99.90;;;;;;4939517;29;20324;-83
2023/06/07 09:39:50;;;;;;;14.45;5.55;;;19.00;99.90;;;;;;4940723;29;20231;-84
2023/06/07 09:42:17;;;;;;;17.85;5.72;;;19.00;99.90;;;;;;4905216;29;20298;-82
2023/06/07 09:44:43;;;;;;;14.75;4.80;;;19.00;99.90;;;;;;4936980;29;20541;-82
2023/06/07 09:47:21;;;;;;;14.73;4.63;;;19.10;99.90;;;;;;4947020;29;20329;-83
2023/06/07 09:49:47;;;;;;;13.20;4.45;;;19.20;99.90;;;;;;4955787;29;20201;-83
2023/06/07 09:52:15;;;;;;;13.88;4.85;;;19.30;99.90;;;;;;4939498;29;20229;-82
2023/06/07 09:54:45;;;;;;;20.08;5.13;;;19.40;99.90;;;;;;4957266;29;20191;-81
2023/06/07 09:57:24;;;;;;;14.45;5.15;;;19.50;99.90;;;;;;4939346;29;20186;-84
2023/06/07 10:00:18;;;;;;;17.52;5.30;;;19.50;99.90;;;;;;4945374;29;20187;-83
2023/06/07 10:02:46;;;;;;;15.68;5.18;;;19.60;99.90;;;;;;4935657;29;20254;-83
2023/06/07 10:05:14;;;;;;;15.10;5.25;;;19.60;99.90;;;;;;4920580;29;20187;-83
2023/06/07 10:07:48;;;;;;;14.15;5.00;;;19.60;99.90;;;;;;4919685;29;20207;-82
2023/06/07 10:10:16;;;;;;;17.08;4.90;;;19.70;99.90;;;;;;4949454;29;20549;-83
2023/06/07 10:12:46;;;;;;;14.38;5.03;;;19.70;99.90;;;;;;4939516;29;20207;-82
2023/06/07 10:15:18;;;;;;;14.40;4.18;;;19.70;99.90;;;;;;4956272;29;20334;-82
2023/06/07 10:18:14;;;;;;;12.93;4.22;;;19.80;99.90;;;;;;4956244;29;20182;-82
2023/06/07 10:20:55;;;;;;;11.52;4.57;;;19.80;99.90;;;;;;4955341;29;20191;-82
2023/06/07 10:23:50;;;;;;;15.13;4.38;;;19.80;99.90;;;;;;4955094;28;20212;-83
2023/06/07 10:26:23;;;;;;;10.75;4.25;;;20.00;99.90;;;;;;4955871;28;20221;-84
2023/06/07 10:29:07;;;;;;;14.95;4.65;;;20.10;99.90;;;;;;4975453;28;20201;-85
2023/06/07 10:31:40;;;;;;;9.23;4.28;;;20.00;99.90;;;;;;4957222;28;20189;-83
2023/06/07 10:34:09;;;;;;;14.00;4.40;;;20.10;99.90;;;;;;4957623;28;20162;-83
2023/06/07 10:36:39;;;;;;;14.02;4.82;;;20.10;99.90;;;;;;4974863;28;20505;-82
2023/06/07 10:39:11;;;;;;;17.95;5.10;;;20.10;99.90;;;;;;4967620;28;20597;-83
2023/06/07 10:41:37;;;;;;;13.05;4.70;;;20.20;99.90;;;;;;4938646;29;20195;-83
2023/06/07 10:44:03;;;;;;;13.20;4.70;;;20.30;99.90;;;;;;4954954;29;20210;-82
2023/06/07 10:46:29;;;;;;;13.55;4.90;;;20.30;99.90;;;;;;4955733;29;20187;-82
2023/06/07 10:48:56;;;;;;;17.38;5.57;;;20.30;99.90;;;;;;4922486;29;20658;-82
2023/06/07 10:51:58;;;;;;;12.80;4.70;;;20.30;99.70;;;;;;4954655;29;20270;-84
2023/06/07 10:54:32;;;;;;;17.40;5.13;;;20.30;99.30;;;;;;4955457;29;20182;-83
2023/06/07 10:56:59;;;;;;;15.90;5.00;;;20.30;99.60;;;;;;4936413;29;20193;-83
2023/06/07 10:59:25;;;;;;;14.18;5.25;;;20.30;99.50;;;;;;4922706;29;20189;-84
2023/06/07 11:01:54;;;;;;;15.55;4.82;;;20.30;99.50;;;;;;4940954;28;20256;-84
2023/06/07 11:04:37;;;;;;;11.55;4.70;;;20.40;99.40;;;;;;4938205;29;20194;-84
2023/06/07 11:07:27;;;;;;;13.15;4.55;;;20.40;99.30;;;;;;4937911;29;20247;-82
2023/06/07 11:10:04;;;;;;;14.25;4.47;;;20.50;99.10;;;;;;4938329;29;20189;-85
2023/06/07 11:12:43;;;;;;;15.57;4.72;;;20.60;98.80;;;;;;4939734;28;20189;-83
2023/06/07 11:15:20;;;;;;;11.07;4.13;;;20.60;98.50;;;;;;4970029;28;20174;-83
2023/06/07 11:18:00;;;;;;;10.43;4.45;;;20.70;98.30;;;;;;4953962;29;20288;-83
2023/06/07 11:20:43;;;;;;;12.73;4.57;;;20.70;98.00;;;;;;4937433;29;20497;-84
2023/06/07 11:23:40;;;;;;;12.52;4.55;;;20.70;97.90;;;;;;4939587;29;20193;-84
2023/06/07 11:26:11;;;;;;;11.50;3.97;;;20.70;97.60;;;;;;4921135;29;20257;-81
2023/06/07 11:28:40;;;;;;;18.80;4.85;;;20.70;97.60;;;;;;4937951;29;20230;-80
2023/06/07 11:31:12;;;;;;;14.35;4.63;;;20.80;97.50;;;;;;4954973;29;20194;-80
2023/06/07 11:33:40;;;;;;;13.25;4.35;;;20.80;97.50;;;;;;4955024;29;20258;-81
2023/06/07 11:36:09;;;;;;;18.60;4.60;;;20.80;97.60;;;;;;4937878;28;20238;-81
2023/06/07 11:38:34;;;;;;;11.10;4.90;;;20.80;97.70;;;;;;4921228;29;20262;-82
2023/06/07 11:41:03;;;;;;;15.50;4.18;;;20.90;97.90;;;;;;4937688;29;20819;-83
2023/06/07 11:43:31;;;;;;;16.65;4.80;;;20.90;97.80;;;;;;4953968;29;20201;-82
2023/06/07 11:45:58;;;;;;;21.40;5.10;;;21.00;97.90;;;;;;4952613;29;20192;-81
2023/06/07 11:48:28;;;;;;;14.23;4.35;;;21.00;97.50;;;;;;4955779;29;20218;-82
2023/06/07 11:50:54;;;;;;;12.48;4.50;;;21.10;97.20;;;;;;4938229;29;20238;-82
2023/06/07 11:53:21;;;;;;;10.32;4.10;;;21.30;96.90;;;;;;4931016;29;20272;-82
2023/06/07 11:55:47;;;;;;;15.38;4.90;;;21.40;96.10;;;;;;4961570;29;20221;-82
2023/06/07 11:58:13;;;;;;;12.80;4.43;;;21.50;95.70;;;;;;4921681;29;20218;-82
2023/06/07 12:00:42;;;;;;;19.73;4.50;;;21.60;95.60;;;;;;4919991;29;20619;-82
2023/06/07 12:03:10;;;;;;;13.55;5.07;;;21.70;95.50;;;;;;4920649;29;20523;-83
2023/06/07 12:05:36;;;;;;;15.88;4.80;;;21.80;95.40;;;;;;4954694;29;20201;-83
2023/06/07 12:08:15;;;;;;;13.25;5.05;;;21.90;95.30;;;;;;4946738;29;20219;-83
2023/06/07 12:10:41;;;;;;;10.55;4.43;;;22.00;95.00;;;;;;4946529;29;20284;-82
2023/06/07 12:13:12;;;;;;;12.98;4.43;;;22.10;94.80;;;;;;4907599;29;20233;-83
2023/06/07 12:15:48;;;;;;;14.65;4.45;;;22.10;94.20;;;;;;4954646;29;20190;-82
2023/06/07 12:18:17;;;;;;;10.32;4.28;;;22.10;94.40;;;;;;4938721;29;20187;-83
2023/06/07 12:20:44;;;;;;;12.70;4.13;;;22.10;94.30;;;;;;4953186;29;20183;-83
2023/06/07 12:23:11;;;;;;;12.38;4.90;;;22.00;94.30;;;;;;4938680;29;20170;-83
2023/06/07 12:25:38;;;;;;;16.92;4.60;;;22.00;94.10;;;;;;4921100;28;20180;-79
2023/06/07 12:28:09;;;;;;;10.63;4.30;;;22.00;94.10;;;;;;4972442;28;20205;-81
2023/06/07 12:30:37;;;;;;;18.83;4.72;;;22.00;94.20;;;;;;4957159;28;20182;-82
2023/06/07 12:33:03;;;;;;;15.65;4.78;;;22.00;94.30;;;;;;4966261;28;20265;-82
2023/06/07 12:35:37;;;;;;;17.77;4.90;;;22.00;94.50;;;;;;4944783;29;20179;-81
2023/06/07 12:38:04;;;;;;;12.25;4.70;;;22.00;94.30;;;;;;4960462;28;20182;-82
2023/06/07 12:40:30;;;;;;;14.65;4.70;;;22.10;94.50;;;;;;4955452;29;20186;-82
2023/06/07 12:42:56;;;;;;;10.35;4.57;;;22.10;94.40;;;;;;4954238;29;20191;-81